sensor_id;sensor_type;location;lat;lon;timestamp;pressure;altitude;pressure_sealevel;temperature;humidity
75221;BME280;63802;53.232;6.570;2023-07-20T00:01:10;101558.16;;;14.60;100.00
75221;BME280;63802;53.232;6.570;2023-07-20T00:03:38;101556.63;;;14.63;100.00
75221;BME280;63802;53.232;6.570;2023-07-20T00:06:04;101560.91;;;14.60;100.00
75221;BME280;63802;53.232;6.570;2023-07-20T00:08:30;101562.06;;;14.59;100.00
75221;BME280;63802;53.232;6.570;2023-07-20T00:10:55;101558.06;;;14.53;100.00
75221;BME280;63802;53.232;6.570;2023-07-20T00:13:21;101563.97;;;14.55;100.00
75221;BME280;63802;53.232;6.570;2023-07-20T00:15:47;101552.88;;;14.48;100.00
75221;BME280;63802;53.232;6.570;2023-07-20T00:18:12;101565.13;;;14.54;100.00
75221;BME280;63802;53.232;6.570;2023-07-20T00:20:39;101563.56;;;14.53;100.00
75221;BME280;63802;53.232;6.570;2023-07-20T00:23:05;101550.88;;;14.45;100.00
75221;BME280;63802;53.232;6.570;2023-07-20T00:25:30;101561.13;;;14.48;100.00
75221;BME280;63802;53.232;6.570;2023-07-20T00:27:56;101564.97;;;14.44;100.00
75221;BME280;63802;53.232;6.570;2023-07-20T00:30:21;101572.84;;;14.45;100.00
75221;BME280;63802;53.232;6.570;2023-07-20T00:32:47;101564.91;;;14.40;100.00
75221;BME280;63802;53.232;6.570;2023-07-20T00:35:12;101568.84;;;14.39;100.00
75221;BME280;63802;53.232;6.570;2023-07-20T00:37:39;101568.75;;;14.32;100.00
75221;BME280;63802;53.232;6.570;2023-07-20T00:40:05;101569.44;;;14.29;100.00
75221;BME280;63802;53.232;6.570;2023-07-20T00:42:33;101567.31;;;14.19;100.00
75221;BME280;63802;53.232;6.570;2023-07-20T00:44:58;101569.22;;;14.15;100.00
75221;BME280;63802;53.232;6.570;2023-07-20T00:47:24;101562.03;;;14.07;100.00
75221;BME280;63802;53.232;6.570;2023-07-20T00:49:50;101564.28;;;14.01;100.00
75221;BME280;63802;53.232;6.570;2023-07-20T00:52:16;101563.38;;;13.94;100.00
75221;BME280;63802;53.232;6.570;2023-07-20T00:54:42;101543.06;;;13.76;100.00
75221;BME280;63802;53.232;6.570;2023-07-20T00:57:09;101554.53;;;13.81;100.00
75221;BME280;63802;53.232;6.570;2023-07-20T00:59:35;101559.84;;;13.71;100.00
75221;BME280;63802;53.232;6.570;2023-07-20T01:02:01;101565.19;;;13.64;100.00
75221;BME280;63802;53.232;6.570;2023-07-20T01:04:27;101556.84;;;13.57;100.00
75221;BME280;63802;53.232;6.570;2023-07-20T01:07:12;101561.78;;;13.48;100.00
75221;BME280;63802;53.232;6.570;2023-07-20T01:09:48;101565.19;;;13.41;100.00
75221;BME280;63802;53.232;6.570;2023-07-20T01:12:42;101560.06;;;13.39;100.00
75221;BME280;63802;53.232;6.570;2023-07-20T01:15:06;101561.00;;;13.28;100.00
75221;BME280;63802;53.232;6.570;2023-07-20T01:17:33;101552.56;;;13.17;100.00
75221;BME280;63802;53.232;6.570;2023-07-20T01:19:59;101541.72;;;13.05;100.00
75221;BME280;63802;53.232;6.570;2023-07-20T01:30:52;101563.06;;;12.96;100.00
75221;BME280;63802;53.232;6.570;2023-07-20T01:33:21;101561.00;;;12.90;100.00
75221;BME280;63802;53.232;6.570;2023-07-20T01:35:55;101549.19;;;12.86;100.00
75221;BME280;63802;53.232;6.570;2023-07-20T01:38:24;101546.63;;;12.77;100.00
75221;BME280;63802;53.232;6.570;2023-07-20T01:40:50;101556.44;;;12.78;100.00
75221;BME280;63802;53.232;6.570;2023-07-20T01:43:16;101556.72;;;12.73;100.00
75221;BME280;63802;53.232;6.570;2023-07-20T01:45:43;101557.81;;;12.68;100.00
75221;BME280;63802;53.232;6.570;2023-07-20T01:48:09;101559.22;;;12.62;100.00
75221;BME280;63802;53.232;6.570;2023-07-20T01:50:34;101546.53;;;12.54;100.00
75221;BME280;63802;53.232;6.570;2023-07-20T01:53:00;101561.38;;;12.53;100.00
75221;BME280;63802;53.232;6.570;2023-07-20T01:55:26;101558.13;;;12.48;100.00
75221;BME280;63802;53.232;6.570;2023-07-20T01:57:52;101552.56;;;12.44;100.00
75221;BME280;63802;53.232;6.570;2023-07-20T02:00:18;101543.69;;;12.32;100.00
75221;BME280;63802;53.232;6.570;2023-07-20T02:02:50;101550.47;;;12.38;100.00
75221;BME280;63802;53.232;6.570;2023-07-20T02:05:16;101551.34;;;12.26;100.00
75221;BME280;63802;53.232;6.570;2023-07-20T02:07:42;101551.28;;;12.23;100.00
75221;BME280;63802;53.232;6.570;2023-07-20T02:10:08;101542.47;;;12.14;100.00
75221;BME280;63802;53.232;6.570;2023-07-20T02:12:33;101553.59;;;12.21;100.00
75221;BME280;63802;53.232;6.570;2023-07-20T02:14:59;101559.78;;;12.18;100.00
75221;BME280;63802;53.232;6.570;2023-07-20T02:17:25;101542.22;;;12.03;100.00
75221;BME280;63802;53.232;6.570;2023-07-20T02:19:52;101559.59;;;12.10;100.00
75221;BME280;63802;53.232;6.570;2023-07-20T02:22:18;101546.03;;;11.98;100.00
75221;BME280;63802;53.232;6.570;2023-07-20T02:24:43;101558.56;;;11.99;100.00
75221;BME280;63802;53.232;6.570;2023-07-20T02:27:09;101559.69;;;11.98;100.00
75221;BME280;63802;53.232;6.570;2023-07-20T02:29:36;101556.16;;;11.98;100.00
75221;BME280;63802;53.232;6.570;2023-07-20T02:32:02;101548.41;;;11.84;100.00
75221;BME280;63802;53.232;6.570;2023-07-20T02:34:27;101557.47;;;11.88;100.00
75221;BME280;63802;53.232;6.570;2023-07-20T02:36:53;101564.56;;;11.89;100.00
75221;BME280;63802;53.232;6.570;2023-07-20T02:39:21;101554.13;;;11.79;100.00
75221;BME280;63802;53.232;6.570;2023-07-20T02:41:47;101558.81;;;11.79;100.00
75221;BME280;63802;53.232;6.570;2023-07-20T02:44:15;101551.44;;;11.67;100.00
75221;BME280;63802;53.232;6.570;2023-07-20T02:46:41;101567.63;;;11.72;100.00
75221;BME280;63802;53.232;6.570;2023-07-20T02:49:06;101566.75;;;11.68;100.00
75221;BME280;63802;53.232;6.570;2023-07-20T02:51:32;101560.34;;;11.64;100.00
75221;BME280;63802;53.232;6.570;2023-07-20T02:53:57;101568.75;;;11.71;100.00
75221;BME280;63802;53.232;6.570;2023-07-20T02:56:23;101563.22;;;11.68;100.00
75221;BME280;63802;53.232;6.570;2023-07-20T02:58:51;101563.88;;;11.65;100.00
75221;BME280;63802;53.232;6.570;2023-07-20T03:01:17;101563.44;;;11.63;100.00
75221;BME280;63802;53.232;6.570;2023-07-20T03:03:43;101572.34;;;11.60;100.00
75221;BME280;63802;53.232;6.570;2023-07-20T03:06:16;101567.69;;;11.60;100.00
75221;BME280;63802;53.232;6.570;2023-07-20T03:08:42;101566.06;;;11.59;100.00
75221;BME280;63802;53.232;6.570;2023-07-20T03:11:16;101562.56;;;11.59;100.00
75221;BME280;63802;53.232;6.570;2023-07-20T03:13:42;101574.75;;;11.61;100.00
75221;BME280;63802;53.232;6.570;2023-07-20T03:16:08;101567.31;;;11.46;100.00
75221;BME280;63802;53.232;6.570;2023-07-20T03:18:37;101573.66;;;11.50;100.00
75221;BME280;63802;53.232;6.570;2023-07-20T03:21:04;101573.22;;;11.48;100.00
75221;BME280;63802;53.232;6.570;2023-07-20T03:23:30;101569.59;;;11.44;100.00
75221;BME280;63802;53.232;6.570;2023-07-20T03:25:55;101573.47;;;11.43;100.00
75221;BME280;63802;53.232;6.570;2023-07-20T03:28:21;101578.06;;;11.39;100.00
75221;BME280;63802;53.232;6.570;2023-07-20T03:30:46;101575.31;;;11.39;100.00
75221;BME280;63802;53.232;6.570;2023-07-20T03:33:12;101572.47;;;11.35;100.00
75221;BME280;63802;53.232;6.570;2023-07-20T03:35:37;101576.69;;;11.33;100.00
75221;BME280;63802;53.232;6.570;2023-07-20T03:38:03;101578.53;;;11.29;100.00
75221;BME280;63802;53.232;6.570;2023-07-20T03:40:29;101575.56;;;11.34;100.00
75221;BME280;63802;53.232;6.570;2023-07-20T03:42:55;101565.31;;;11.31;100.00
75221;BME280;63802;53.232;6.570;2023-07-20T03:45:20;101572.66;;;11.42;100.00
75221;BME280;63802;53.232;6.570;2023-07-20T03:47:49;101577.06;;;11.47;100.00
75221;BME280;63802;53.232;6.570;2023-07-20T03:50:14;101561.53;;;11.35;100.00
75221;BME280;63802;53.232;6.570;2023-07-20T03:52:40;101581.41;;;11.48;100.00
75221;BME280;63802;53.232;6.570;2023-07-20T03:55:06;101568.00;;;11.43;100.00
75221;BME280;63802;53.232;6.570;2023-07-20T03:57:31;101579.81;;;11.47;100.00
75221;BME280;63802;53.232;6.570;2023-07-20T03:59:58;101578.44;;;11.53;100.00
75221;BME280;63802;53.232;6.570;2023-07-20T04:02:27;101571.34;;;11.52;100.00
75221;BME280;63802;53.232;6.570;2023-07-20T04:04:52;101575.25;;;11.51;100.00
75221;BME280;63802;53.232;6.570;2023-07-20T04:07:18;101585.31;;;11.63;100.00
75221;BME280;63802;53.232;6.570;2023-07-20T04:09:43;101575.94;;;11.64;100.00
75221;BME280;63802;53.232;6.570;2023-07-20T04:12:09;101557.53;;;11.61;100.00
75221;BME280;63802;53.232;6.570;2023-07-20T04:14:34;101543.50;;;11.62;100.00
75221;BME280;63802;53.232;6.570;2023-07-20T04:17:00;101581.41;;;11.91;100.00
75221;BME280;63802;53.232;6.570;2023-07-20T04:19:26;101584.84;;;11.88;100.00
75221;BME280;63802;53.232;6.570;2023-07-20T04:21:51;101587.41;;;11.97;100.00
75221;BME280;63802;53.232;6.570;2023-07-20T04:24:17;101561.28;;;11.84;100.00
75221;BME280;63802;53.232;6.570;2023-07-20T04:26:42;101598.59;;;12.07;100.00
75221;BME280;63802;53.232;6.570;2023-07-20T04:29:08;101586.78;;;12.03;100.00
75221;BME280;63802;53.232;6.570;2023-07-20T04:31:34;101606.56;;;12.13;100.00
75221;BME280;63802;53.232;6.570;2023-07-20T04:34:00;101587.66;;;12.07;100.00
75221;BME280;63802;53.232;6.570;2023-07-20T04:36:26;101598.72;;;12.11;100.00
75221;BME280;63802;53.232;6.570;2023-07-20T04:38:52;101607.53;;;12.20;100.00
75221;BME280;63802;53.232;6.570;2023-07-20T04:41:17;101595.34;;;12.18;100.00
75221;BME280;63802;53.232;6.570;2023-07-20T04:43:43;101600.63;;;12.26;100.00
75221;BME280;63802;53.232;6.570;2023-07-20T04:46:10;101606.00;;;12.38;100.00
75221;BME280;63802;53.232;6.570;2023-07-20T04:48:35;101605.81;;;12.47;100.00
75221;BME280;63802;53.232;6.570;2023-07-20T04:51:01;101606.84;;;12.58;100.00
75221;BME280;63802;53.232;6.570;2023-07-20T04:53:29;101617.84;;;12.77;100.00
75221;BME280;63802;53.232;6.570;2023-07-20T04:55:56;101610.94;;;12.83;100.00
75221;BME280;63802;53.232;6.570;2023-07-20T04:58:22;101615.66;;;13.02;100.00
75221;BME280;63802;53.232;6.570;2023-07-20T05:00:49;101599.59;;;13.00;100.00
75221;BME280;63802;53.232;6.570;2023-07-20T05:03:14;101616.97;;;13.27;100.00
75221;BME280;63802;53.232;6.570;2023-07-20T05:05:43;101614.75;;;13.32;100.00
75221;BME280;63802;53.232;6.570;2023-07-20T05:08:11;101614.75;;;13.32;100.00
75221;BME280;63802;53.232;6.570;2023-07-20T05:10:37;101611.13;;;13.48;100.00
75221;BME280;63802;53.232;6.570;2023-07-20T05:13:02;101613.59;;;13.53;100.00
75221;BME280;63802;53.232;6.570;2023-07-20T05:15:35;101620.91;;;13.68;100.00
75221;BME280;63802;53.232;6.570;2023-07-20T05:18:01;101625.81;;;13.78;100.00
75221;BME280;63802;53.232;6.570;2023-07-20T05:20:26;101610.34;;;13.89;100.00
75221;BME280;63802;53.232;6.570;2023-07-20T05:22:52;101618.41;;;14.01;100.00
75221;BME280;63802;53.232;6.570;2023-07-20T05:25:18;101604.22;;;13.99;100.00
75221;BME280;63802;53.232;6.570;2023-07-20T05:27:44;101587.88;;;14.06;100.00
75221;BME280;63802;53.232;6.570;2023-07-20T05:30:10;101607.69;;;14.19;100.00
75221;BME280;63802;53.232;6.570;2023-07-20T05:32:36;101606.38;;;14.32;100.00
75221;BME280;63802;53.232;6.570;2023-07-20T05:35:01;101605.31;;;14.40;100.00
75221;BME280;63802;53.232;6.570;2023-07-20T05:37:27;101599.56;;;14.48;100.00
75221;BME280;63802;53.232;6.570;2023-07-20T05:39:52;101610.44;;;14.67;100.00
75221;BME280;63802;53.232;6.570;2023-07-20T05:42:18;101598.34;;;14.72;100.00
75221;BME280;63802;53.232;6.570;2023-07-20T05:44:43;101614.22;;;14.86;100.00
75221;BME280;63802;53.232;6.570;2023-07-20T05:47:09;101614.00;;;14.98;100.00
75221;BME280;63802;53.232;6.570;2023-07-20T05:49:35;101599.50;;;15.01;100.00
75221;BME280;63802;53.232;6.570;2023-07-20T05:52:00;101606.69;;;15.09;100.00
75221;BME280;63802;53.232;6.570;2023-07-20T05:54:27;101603.78;;;15.28;100.00
75221;BME280;63802;53.232;6.570;2023-07-20T05:56:53;101593.78;;;15.46;100.00
75221;BME280;63802;53.232;6.570;2023-07-20T05:59:19;101590.78;;;15.58;100.00
75221;BME280;63802;53.232;6.570;2023-07-20T06:01:45;101584.22;;;15.70;100.00
75221;BME280;63802;53.232;6.570;2023-07-20T06:04:14;101578.06;;;15.83;100.00
75221;BME280;63802;53.232;6.570;2023-07-20T06:06:40;101579.28;;;15.86;100.00
75221;BME280;63802;53.232;6.570;2023-07-20T06:09:05;101569.44;;;15.88;100.00
75221;BME280;63802;53.232;6.570;2023-07-20T06:11:35;101565.63;;;16.03;100.00
75221;BME280;63802;53.232;6.570;2023-07-20T06:14:00;101570.16;;;16.26;100.00
75221;BME280;63802;53.232;6.570;2023-07-20T06:16:26;101567.53;;;16.43;100.00
75221;BME280;63802;53.232;6.570;2023-07-20T06:18:51;101569.53;;;16.50;100.00
75221;BME280;63802;53.232;6.570;2023-07-20T06:21:16;101558.47;;;16.46;100.00
75221;BME280;63802;53.232;6.570;2023-07-20T06:23:42;101572.78;;;16.66;100.00
75221;BME280;63802;53.232;6.570;2023-07-20T06:26:07;101564.13;;;16.64;100.00
75221;BME280;63802;53.232;6.570;2023-07-20T06:28:33;101543.66;;;16.65;100.00
75221;BME280;63802;53.232;6.570;2023-07-20T06:31:02;101573.78;;;17.05;100.00
75221;BME280;63802;53.232;6.570;2023-07-20T06:33:29;101574.66;;;17.34;100.00
75221;BME280;63802;53.232;6.570;2023-07-20T06:35:54;101568.38;;;17.44;100.00
75221;BME280;63802;53.232;6.570;2023-07-20T06:38:22;101569.97;;;17.49;100.00
75221;BME280;63802;53.232;6.570;2023-07-20T06:40:48;101568.81;;;17.57;100.00
75221;BME280;63802;53.232;6.570;2023-07-20T06:43:14;101558.97;;;17.63;100.00
75221;BME280;63802;53.232;6.570;2023-07-20T06:45:40;101560.56;;;17.88;100.00
75221;BME280;63802;53.232;6.570;2023-07-20T06:48:05;101574.41;;;18.13;100.00
75221;BME280;63802;53.232;6.570;2023-07-20T06:50:31;101573.59;;;17.98;100.00
75221;BME280;63802;53.232;6.570;2023-07-20T06:52:56;101571.63;;;17.99;100.00
75221;BME280;63802;53.232;6.570;2023-07-20T06:55:22;101579.50;;;17.76;100.00
75221;BME280;63802;53.232;6.570;2023-07-20T06:57:47;101582.56;;;17.42;100.00
75221;BME280;63802;53.232;6.570;2023-07-20T07:00:13;101579.72;;;17.14;100.00
75221;BME280;63802;53.232;6.570;2023-07-20T07:02:39;101580.84;;;17.03;100.00
75221;BME280;63802;53.232;6.570;2023-07-20T07:05:04;101568.75;;;17.35;100.00
75221;BME280;63802;53.232;6.570;2023-07-20T07:07:30;101581.91;;;18.09;100.00
75221;BME280;63802;53.232;6.570;2023-07-20T07:09:56;101563.69;;;18.43;100.00
75221;BME280;63802;53.232;6.570;2023-07-20T07:12:22;101568.81;;;18.62;100.00
75221;BME280;63802;53.232;6.570;2023-07-20T07:14:47;101589.25;;;18.93;100.00
75221;BME280;63802;53.232;6.570;2023-07-20T07:17:13;101587.94;;;19.26;100.00
75221;BME280;63802;53.232;6.570;2023-07-20T07:19:38;101584.25;;;19.57;100.00
75221;BME280;63802;53.232;6.570;2023-07-20T07:22:04;101580.03;;;19.28;100.00
75221;BME280;63802;53.232;6.570;2023-07-20T07:24:29;101592.56;;;19.57;100.00
75221;BME280;63802;53.232;6.570;2023-07-20T07:26:59;101590.53;;;19.61;100.00
75221;BME280;63802;53.232;6.570;2023-07-20T07:29:25;101590.00;;;19.84;100.00
75221;BME280;63802;53.232;6.570;2023-07-20T07:31:51;101593.63;;;20.25;100.00
75221;BME280;63802;53.232;6.570;2023-07-20T07:34:17;101592.19;;;20.06;100.00
75221;BME280;63802;53.232;6.570;2023-07-20T07:36:43;101585.38;;;19.63;100.00
75221;BME280;63802;53.232;6.570;2023-07-20T07:39:08;101590.06;;;18.97;100.00
75221;BME280;63802;53.232;6.570;2023-07-20T07:41:34;101598.44;;;18.41;100.00
75221;BME280;63802;53.232;6.570;2023-07-20T07:44:00;101589.00;;;18.10;100.00
75221;BME280;63802;53.232;6.570;2023-07-20T07:46:25;101588.22;;;17.85;100.00
75221;BME280;63802;53.232;6.570;2023-07-20T07:48:51;101603.19;;;17.98;100.00
75221;BME280;63802;53.232;6.570;2023-07-20T07:51:16;101600.03;;;18.56;100.00
75221;BME280;63802;53.232;6.570;2023-07-20T07:53:42;101622.44;;;19.04;100.00
75221;BME280;63802;53.232;6.570;2023-07-20T07:56:08;101615.50;;;19.58;100.00
75221;BME280;63802;53.232;6.570;2023-07-20T07:58:34;101618.47;;;19.84;100.00
75221;BME280;63802;53.232;6.570;2023-07-20T08:00:59;101623.06;;;20.08;100.00
75221;BME280;63802;53.232;6.570;2023-07-20T08:03:25;101612.06;;;19.98;94.78
75221;BME280;63802;53.232;6.570;2023-07-20T08:05:54;101610.53;;;20.41;95.72
75221;BME280;63802;53.232;6.570;2023-07-20T08:08:21;101604.00;;;20.96;91.79
75221;BME280;63802;53.232;6.570;2023-07-20T08:10:47;101607.63;;;21.26;89.67
75221;BME280;63802;53.232;6.570;2023-07-20T08:13:13;101623.63;;;21.76;85.09
75221;BME280;63802;53.232;6.570;2023-07-20T08:15:38;101596.53;;;21.26;82.30
75221;BME280;63802;53.232;6.570;2023-07-20T08:18:04;101617.72;;;20.76;89.99
75221;BME280;63802;53.232;6.570;2023-07-20T08:20:29;101601.19;;;20.25;94.08
75221;BME280;63802;53.232;6.570;2023-07-20T08:22:57;101614.09;;;19.87;94.03
75221;BME280;63802;53.232;6.570;2023-07-20T08:25:25;101618.16;;;19.75;100.00
75221;BME280;63802;53.232;6.570;2023-07-20T08:27:51;101623.31;;;19.77;100.00
75221;BME280;63802;53.232;6.570;2023-07-20T08:30:16;101618.13;;;20.34;94.50
75221;BME280;63802;53.232;6.570;2023-07-20T08:32:42;101616.97;;;20.72;89.83
75221;BME280;63802;53.232;6.570;2023-07-20T08:35:08;101608.69;;;21.02;78.69
75221;BME280;63802;53.232;6.570;2023-07-20T08:37:34;101622.88;;;21.72;78.01
75221;BME280;63802;53.232;6.570;2023-07-20T08:39:59;101618.47;;;22.01;71.95
75221;BME280;63802;53.232;6.570;2023-07-20T08:42:25;101623.38;;;21.36;72.66
75221;BME280;63802;53.232;6.570;2023-07-20T08:44:52;101623.59;;;20.82;80.23
75221;BME280;63802;53.232;6.570;2023-07-20T08:47:18;101633.91;;;20.44;81.34
75221;BME280;63802;53.232;6.570;2023-07-20T08:49:48;101634.94;;;20.57;83.62
75221;BME280;63802;53.232;6.570;2023-07-20T08:52:14;101608.03;;;20.91;79.58
75221;BME280;63802;53.232;6.570;2023-07-20T08:54:40;101616.44;;;21.52;73.19
75221;BME280;63802;53.232;6.570;2023-07-20T08:57:05;101630.94;;;21.93;70.21
75221;BME280;63802;53.232;6.570;2023-07-20T08:59:34;101618.88;;;22.26;69.06
75221;BME280;63802;53.232;6.570;2023-07-20T09:02:04;101627.34;;;22.65;70.79
75221;BME280;63802;53.232;6.570;2023-07-20T09:04:30;101620.16;;;22.88;62.79
75221;BME280;63802;53.232;6.570;2023-07-20T09:06:59;101627.78;;;22.60;63.73
75221;BME280;63802;53.232;6.570;2023-07-20T09:09:25;101634.44;;;21.97;67.55
75221;BME280;63802;53.232;6.570;2023-07-20T09:11:50;101616.56;;;22.21;67.29
75221;BME280;63802;53.232;6.570;2023-07-20T09:14:16;101628.88;;;21.97;66.07
75221;BME280;63802;53.232;6.570;2023-07-20T09:16:55;101627.75;;;21.34;66.97
75221;BME280;63802;53.232;6.570;2023-07-20T09:19:21;101625.06;;;21.57;68.70
75221;BME280;63802;53.232;6.570;2023-07-20T09:21:51;101600.63;;;21.72;68.39
75221;BME280;63802;53.232;6.570;2023-07-20T09:24:18;101613.75;;;21.98;64.95
75221;BME280;63802;53.232;6.570;2023-07-20T09:26:45;101625.97;;;21.77;70.13
75221;BME280;63802;53.232;6.570;2023-07-20T09:29:13;101638.16;;;21.26;73.85
75221;BME280;63802;53.232;6.570;2023-07-20T09:31:38;101636.47;;;20.65;78.83
75221;BME280;63802;53.232;6.570;2023-07-20T09:34:07;101646.31;;;20.22;75.15
75221;BME280;63802;53.232;6.570;2023-07-20T09:36:36;101651.56;;;20.13;82.68
75221;BME280;63802;53.232;6.570;2023-07-20T09:39:03;101633.78;;;20.54;83.06
75221;BME280;63802;53.232;6.570;2023-07-20T09:41:30;101630.59;;;21.30;75.60
75221;BME280;63802;53.232;6.570;2023-07-20T09:43:55;101630.22;;;21.59;72.45
75221;BME280;63802;53.232;6.570;2023-07-20T09:46:22;101641.75;;;21.87;69.70
75221;BME280;63802;53.232;6.570;2023-07-20T09:48:53;101637.47;;;22.06;71.07
75221;BME280;63802;53.232;6.570;2023-07-20T09:51:22;101635.44;;;21.83;72.12
75221;BME280;63802;53.232;6.570;2023-07-20T09:53:50;101648.38;;;21.36;72.94
75221;BME280;63802;53.232;6.570;2023-07-20T09:56:17;101645.63;;;20.99;75.74
75221;BME280;63802;53.232;6.570;2023-07-20T09:58:46;101639.97;;;20.73;74.04
75221;BME280;63802;53.232;6.570;2023-07-20T10:01:16;101645.22;;;20.60;75.38
75221;BME280;63802;53.232;6.570;2023-07-20T10:03:44;101638.84;;;21.00;78.06
75221;BME280;63802;53.232;6.570;2023-07-20T10:06:13;101628.78;;;21.47;77.47
75221;BME280;63802;53.232;6.570;2023-07-20T10:08:41;101635.91;;;22.05;70.22
75221;BME280;63802;53.232;6.570;2023-07-20T10:11:08;101628.59;;;22.38;62.45
75221;BME280;63802;53.232;6.570;2023-07-20T10:13:37;101637.38;;;22.59;65.66
75221;BME280;63802;53.232;6.570;2023-07-20T10:16:10;101637.69;;;21.92;61.89
75221;BME280;63802;53.232;6.570;2023-07-20T10:18:46;101640.28;;;21.15;69.34
75221;BME280;63802;53.232;6.570;2023-07-20T10:21:20;101635.16;;;20.77;71.86
75221;BME280;63802;53.232;6.570;2023-07-20T10:23:48;101630.09;;;21.35;75.72
75221;BME280;63802;53.232;6.570;2023-07-20T10:26:14;101624.09;;;22.24;65.96
75221;BME280;63802;53.232;6.570;2023-07-20T10:28:40;101637.44;;;22.99;61.36
75221;BME280;63802;53.232;6.570;2023-07-20T10:31:08;101625.72;;;22.88;60.52
75221;BME280;63802;53.232;6.570;2023-07-20T10:33:35;101625.88;;;22.57;58.76
75221;BME280;63802;53.232;6.570;2023-07-20T10:36:03;101637.47;;;23.38;63.24
75221;BME280;63802;53.232;6.570;2023-07-20T10:38:53;101637.34;;;24.13;57.42
75221;BME280;63802;53.232;6.570;2023-07-20T10:41:21;101635.25;;;24.17;52.62
75221;BME280;63802;53.232;6.570;2023-07-20T10:43:49;101628.75;;;24.69;50.44
75221;BME280;63802;53.232;6.570;2023-07-20T10:49:04;101624.88;;;24.18;48.75
75221;BME280;63802;53.232;6.570;2023-07-20T10:51:45;101636.72;;;23.34;52.13
75221;BME280;63802;53.232;6.570;2023-07-20T10:56:44;101621.09;;;23.01;61.08
75221;BME280;63802;53.232;6.570;2023-07-20T11:01:55;101628.31;;;23.38;55.22
75221;BME280;63802;53.232;6.570;2023-07-20T11:07:03;101625.22;;;23.32;52.32
75221;BME280;63802;53.232;6.570;2023-07-20T11:09:34;101623.28;;;23.29;54.01
75221;BME280;63802;53.232;6.570;2023-07-20T11:12:12;101627.84;;;24.11;52.90
75221;BME280;63802;53.232;6.570;2023-07-20T11:15:01;101622.59;;;23.96;51.84
75221;BME280;63802;53.232;6.570;2023-07-20T11:17:30;101618.88;;;24.80;49.61
75221;BME280;63802;53.232;6.570;2023-07-20T11:20:01;101615.91;;;24.87;48.13
75221;BME280;63802;53.232;6.570;2023-07-20T11:22:28;101612.97;;;23.65;48.76
75221;BME280;63802;53.232;6.570;2023-07-20T11:24:56;101626.78;;;23.53;52.87
75221;BME280;63802;53.232;6.570;2023-07-20T11:27:22;101627.69;;;24.18;50.87
75221;BME280;63802;53.232;6.570;2023-07-20T11:29:48;101619.28;;;24.34;52.05
75221;BME280;63802;53.232;6.570;2023-07-20T11:32:20;101619.50;;;25.00;53.91
75221;BME280;63802;53.232;6.570;2023-07-20T11:34:47;101608.91;;;24.95;46.65
75221;BME280;63802;53.232;6.570;2023-07-20T11:37:13;101612.66;;;24.12;49.59
75221;BME280;63802;53.232;6.570;2023-07-20T11:39:39;101609.03;;;23.27;52.32
75221;BME280;63802;53.232;6.570;2023-07-20T11:42:08;101592.19;;;22.95;53.34
75221;BME280;63802;53.232;6.570;2023-07-20T11:44:33;101597.19;;;22.60;55.35
75221;BME280;63802;53.232;6.570;2023-07-20T11:47:12;101595.66;;;22.99;54.26
75221;BME280;63802;53.232;6.570;2023-07-20T11:49:40;101603.53;;;23.59;52.63
75221;BME280;63802;53.232;6.570;2023-07-20T11:52:07;101612.84;;;23.33;52.04
75221;BME280;63802;53.232;6.570;2023-07-20T11:54:34;101602.31;;;23.44;51.13
75221;BME280;63802;53.232;6.570;2023-07-20T11:57:03;101607.88;;;22.85;50.73
75221;BME280;63802;53.232;6.570;2023-07-20T11:59:30;101606.31;;;23.04;54.14
75221;BME280;63802;53.232;6.570;2023-07-20T12:01:57;101603.03;;;23.09;53.35
75221;BME280;63802;53.232;6.570;2023-07-20T12:04:23;101598.72;;;23.24;55.93
75221;BME280;63802;53.232;6.570;2023-07-20T12:06:48;101607.94;;;23.01;56.09
75221;BME280;63802;53.232;6.570;2023-07-20T12:09:16;101592.75;;;22.66;58.81
75221;BME280;63802;53.232;6.570;2023-07-20T12:11:44;101594.53;;;22.77;57.23
75221;BME280;63802;53.232;6.570;2023-07-20T12:14:13;101593.75;;;22.76;56.07
75221;BME280;63802;53.232;6.570;2023-07-20T12:16:38;101602.53;;;22.51;56.63
75221;BME280;63802;53.232;6.570;2023-07-20T12:19:10;101601.00;;;22.00;56.18
75221;BME280;63802;53.232;6.570;2023-07-20T12:21:38;101599.50;;;21.43;58.46
75221;BME280;63802;53.232;6.570;2023-07-20T12:24:04;101600.06;;;21.30;61.29
75221;BME280;63802;53.232;6.570;2023-07-20T12:26:30;101598.63;;;21.46;62.81
75221;BME280;63802;53.232;6.570;2023-07-20T12:28:56;101590.56;;;21.55;64.66
75221;BME280;63802;53.232;6.570;2023-07-20T12:31:22;101611.66;;;21.79;61.66
75221;BME280;63802;53.232;6.570;2023-07-20T12:33:50;101601.84;;;21.71;62.61
75221;BME280;63802;53.232;6.570;2023-07-20T12:36:16;101609.66;;;21.79;60.81
75221;BME280;63802;53.232;6.570;2023-07-20T12:38:41;101604.84;;;21.57;60.48
75221;BME280;63802;53.232;6.570;2023-07-20T12:41:07;101581.19;;;21.45;61.41
75221;BME280;63802;53.232;6.570;2023-07-20T12:43:33;101598.94;;;21.24;64.32
75221;BME280;63802;53.232;6.570;2023-07-20T12:45:59;101601.97;;;21.33;68.87
75221;BME280;63802;53.232;6.570;2023-07-20T12:48:24;101611.34;;;21.47;78.83
75221;BME280;63802;53.232;6.570;2023-07-20T12:50:50;101608.38;;;21.30;92.86
75221;BME280;63802;53.232;6.570;2023-07-20T12:53:16;101610.09;;;20.84;84.49
75221;BME280;63802;53.232;6.570;2023-07-20T12:55:42;101608.13;;;20.84;90.07
75221;BME280;63802;53.232;6.570;2023-07-20T12:58:08;101599.44;;;20.79;90.81
75221;BME280;63802;53.232;6.570;2023-07-20T13:00:34;101601.44;;;21.15;86.90